Terlet Airfield

EHTL · Gueldre, Pays-Bas

3 octobre 2022

Temps Code Temps Temp. Vue Base cloud Vent METAR/SPECI
08:55
V
7 °C 10 km+ - 130° 130° 1 kt METAR EHDL 030655Z AUTO 13001KT 9999 NCD 07/07 Q1026 BLU
08:25
V
4 °C 10 km+ - 140° 140° 1 kt METAR EHDL 030625Z AUTO 14001KT 9999 BKN000 04/04 Q1026 RED
07:55
M
4 °C 5 km - Var Var 2 kt METAR EHDL 030555Z AUTO VRB02KT 5000 BR BKN000 04/04 Q1026 RED
07:25
V
3 °C 10 km+ - Var Var 1 kt METAR EHDL 030525Z AUTO VRB01KT 9999 NCD 03/03 Q1026 BLU
06:55
I
4 °C 2,8 km - Var Var 1 kt METAR EHDL 030455Z AUTO VRB01KT 2800 BR OVC000 04/03 Q1026 RED
06:25
V
4 °C 8 km - 120° 120° 2 kt METAR EHDL 030425Z AUTO 12002KT 8000 BR OVC000 04/04 Q1026 RED
05:55
V
4 °C 10 km+ - Var Var 1 kt METAR EHDL 030355Z AUTO VRB01KT 9999 OVC000/// 04/04 Q1026 RED
05:25
V
5 °C 10 km+ - 120° 120° 2 kt METAR EHDL 030325Z AUTO 12002KT 9999 BKN000 05/04 Q1026 RED
04:55
V
5 °C 10 km+ - Var Var 1 kt METAR EHDL 030255Z AUTO VRB01KT 9999 FEW000 SCT026 05/04 Q1026 BLU
04:25
V
5 °C 10 km+ - Var Var 2 kt METAR EHDL 030225Z AUTO VRB02KT 9999 NCD 05/05 Q1026 BLU
03:55
V
5 °C 10 km+ - Var Var 2 kt METAR EHDL 030155Z AUTO VRB02KT 9999 SCT026 05/04 Q1025 BLU
03:25
V
5 °C 10 km+ - Var Var 1 kt METAR EHDL 030125Z AUTO VRB01KT 9999 NCD 05/05 Q1025 BLU
02:55
V
6 °C 10 km+ - 120° 120° 1 kt METAR EHDL 030055Z AUTO 12001KT 9999 FEW024 06/05 Q1025 BLU
02:25
V
8 °C 10 km+ - Var Var 1 kt METAR EHDL 030025Z AUTO VRB01KT 9999 NCD 08/07 Q1025 BLU RMK CB INFO NOT AVBL
01:55
M
6 °C 10 km+ 2.200 ft 130° 130° 1 kt METAR EHDL 022355Z AUTO 13001KT 9999 BKN022 06/06 Q1025 WHT
01:25
V
7 °C 10 km+ - 130° 130° 1 kt METAR EHDL 022325Z AUTO 13001KT 9999 NCD 07/06 Q1024 BLU
00:55
V
7 °C 10 km+ 3.100 ft 140° 140° 1 kt METAR EHDL 022255Z AUTO 14001KT 9999 FEW025 OVC031 07/07 Q1025 BLU
00:25
V
7 °C 10 km+ - 150° 150° 1 kt METAR EHDL 022225Z AUTO 15001KT 9999 NCD 07/07 Q1024 BLU

2 octobre 2022

Temps Code Temps Temp. Vue Base cloud Vent METAR/SPECI
23:55
V
7 °C 10 km+ - 150° 150° 1 kt METAR EHDL 022155Z AUTO 15001KT 9999 NCD 07/07 Q1024 BLU
23:25
V
7 °C 10 km+ - Var Var 1 kt METAR EHDL 022125Z AUTO VRB01KT 9999 NCD 07/07 Q1024 BLU
22:55
V
8 °C 10 km+ 3.900 ft 130° 130° 1 kt METAR EHDL 022055Z AUTO 13001KT 9999 BKN039 08/07 Q1023 BLU
22:25
V
8 °C 10 km+ - Var Var 1 kt METAR EHDL 022025Z AUTO VRB01KT 9999 FEW042 08/08 Q1023 BLU
21:55
V
8 °C 10 km+ - 300° 300° 2 kt METAR EHDL 021955Z AUTO 30002KT 9999 NCD 08/08 Q1023 BLU
21:25
V
9 °C 10 km+ - 280° 280° 2 kt METAR EHDL 021925Z AUTO 28002KT 9999 NCD 09/08 Q1022 BLU
20:55
V
10 °C 10 km+ - 290° 290° 4 kt METAR EHDL 021855Z AUTO 29004KT 9999 NCD 10/08 Q1022 BLU
20:25
V
12 °C 10 km+ - 290° 290° 4 kt METAR EHDL 021825Z AUTO 29004KT 270V360 9999 FEW031 12/08 Q1022 BLU
19:55
V
12 °C 10 km+ - 300° 300° 4 kt METAR EHDL 021755Z AUTO 30004KT 250V350 9999 NCD 12/08 Q1021 BLU
19:25
V
13 °C 10 km+ - 290° 290° 5 kt METAR EHDL 021725Z AUTO 29005KT 270V340 9999 NCD 13/08 Q1021 BLU
18:55
V
15 °C 10 km+ - 310° 310° 5 kt METAR EHDL 021655Z AUTO 31005KT 270V010 9999 NCD 15/09 Q1020 BLU
18:25
V
15 °C 10 km+ - 320° 320° 7 kt METAR EHDL 021625Z AUTO 32007KT 290V020 9999 FEW035 15/09 Q1020 BLU
17:55
V
16 °C 10 km+ - 330° 330° 10 kt METAR EHDL 021555Z AUTO 33010KT 270V030 9999 FEW030 16/09 Q1019 BLU
17:25
V
17 °C 10 km+ - 300° 300° 9 kt METAR EHDL 021525Z AUTO 30009KT 280V040 9999 NCD 17/09 Q1019 BLU
16:55
V
17 °C 10 km+ - 280° 280° 7 kt METAR EHDL 021455Z AUTO 28007KT 230V030 9999 FEW059 17/09 Q1019 BLU
16:25
V
16 °C 10 km+ - 300° 300° 10 kt METAR EHDL 021425Z AUTO 30010KT 220V010 9999 FEW032 16/08 Q1018 BLU
15:55
V
17 °C 10 km+ - 310° 310° 12 kt METAR EHDL 021355Z AUTO 31012KT 230V010 9999 FEW034 17/08 Q1018 BLU
15:25
V
16 °C 10 km+ - 310° 310° 10 kt METAR EHDL 021325Z AUTO 31010KT 230V340 9999 FEW042 SCT047 16/09 Q1018 BLU
14:55
V
17 °C 10 km+ 28.000 ft 290° 290° 8 kt METAR EHDL 021255Z AUTO 29008KT 210V010 9999 SCT029 SCT036 BKN280 17/10 Q1018 BLU
14:25
V
17 °C 10 km+ 27.000 ft 300° 300° 10 kt METAR EHDL 021225Z AUTO 30010KT 210V350 9999 SCT057 OVC270 17/10 Q1018 BLU
13:55
V
16 °C 10 km+ 5.500 ft 300° 300° 9 kt METAR EHDL 021155Z AUTO 30009KT 220V020 9999 FEW049 OVC055 16/10 Q1018 BLU
13:25
M
17 °C 10 km+ 2.900 ft 280° 280° 10 kt METAR EHDL 021125Z AUTO 28010KT 220V350 9999 SCT025 BKN029 BKN038 17/11 Q1017 BLU
12:55
V
17 °C 10 km+ 7.000 ft 290° 290° 11 kt METAR EHDL 021055Z AUTO 29011KT 230V020 9999 FEW024 SCT028 BKN070 17/11 Q1017 BLU
12:25
M
17 °C 10 km+ 2.500 ft 300° 300° 9 kt METAR EHDL 021025Z AUTO 30009KT 220V360 9999 SCT018 BKN025 BKN029 17/12 Q1017 WHT
11:55
V
16 °C 10 km+ 24.000 ft 280° 280° 9 kt METAR EHDL 020955Z AUTO 28009KT 220V340 9999 FEW017 SCT069 OVC240 16/12 Q1016 BLU
11:25
V
15 °C 10 km+ 23.000 ft 270° 270° 9 kt METAR EHDL 020925Z AUTO 27009KT 190V330 9999 OVC230 15/12 Q1016 BLU
10:55
V
15 °C 10 km+ 22.000 ft 270° 270° 7 kt METAR EHDL 020855Z AUTO 27007KT 210V010 9999 OVC220 15/13 Q1016 BLU
10:25
V
14 °C 10 km+ 21.000 ft 240° 240° 5 kt METAR EHDL 020825Z AUTO 24005KT 180V310 9999 OVC210 14/13 Q1016 BLU
09:55
V
14 °C 10 km+ 21.000 ft 240° 240° 6 kt METAR EHDL 020755Z AUTO 24006KT 190V310 9999 FEW004 OVC210 14/13 Q1015 BLU
09:25
V
13 °C 10 km+ 22.000 ft 240° 240° 6 kt METAR EHDL 020725Z AUTO 24006KT 180V280 9999 OVC220 13/13 Q1015 BLU
08:55
V
13 °C 10 km+ 21.000 ft 230° 230° 6 kt METAR EHDL 020655Z AUTO 23006KT 170V300 9999 SCT031 OVC210 13/12 Q1015 BLU
08:25
V
12 °C 8 km 6.600 ft 230° 230° 6 kt METAR EHDL 020625Z AUTO 23006KT 170V270 8000 -DZ FEW015CB SCT059 OVC066 12/12 Q1015 BLU
07:55
V
12 °C 8 km 8.200 ft 230° 230° 7 kt METAR EHDL 020555Z AUTO 23007KT 170V270 8000 BR BKN082 BKN092 OVC099 12/11 Q1014 BLU
07:25
M
11 °C 6 km 23.000 ft 230° 230° 5 kt METAR EHDL 020525Z AUTO 23005KT 150V280 6000 BR OVC230 11/11 Q1014 WHT
06:55
M
12 °C 9 km 2.800 ft 240° 240° 5 kt METAR EHDL 020455Z AUTO 24005KT 160V320 9000 BR FEW003 SCT020 BKN028 12/12 Q1014 WHT
06:25
V
12 °C 9 km 4.100 ft 220° 220° 7 kt METAR EHDL 020425Z AUTO 22007KT 150V270 9000 BR SCT017 SCT024 BKN041 12/12 Q1014 WHT
05:55
M
12 °C 8 km 2.900 ft 220° 220° 7 kt METAR EHDL 020355Z AUTO 22007KT 160V290 8000 BR FEW021 SCT024 BKN029 12/12 Q1013 WHT
05:25
M
12 °C 7 km 7.500 ft 230° 230° 5 kt METAR EHDL 020325Z AUTO 23005KT 170V260 7000 BR FEW020 SCT023 BKN075 12/12 Q1013 WHT
04:55
V
12 °C 8 km 3.100 ft 210° 210° 8 kt METAR EHDL 020255Z AUTO 21008KT 130V240 8000 BR FEW020 SCT025 BKN031 12/12 Q1013 RERA BLU
04:25
M
12 °C 10 km+ 2.200 ft 230° 230° 6 kt METAR EHDL 020225Z AUTO 23006KT 160V260 9999 -RA FEW015CB SCT019 BKN022 OVC026 12/12 Q1013 WHT
03:55
V
12 °C 10 km+ - 210° 210° 6 kt METAR EHDL 020155Z AUTO 21006KT 150V250 9999 FEW007 FEW015CB SCT060 12/11 Q1013 BLU
03:25
M
13 °C 10 km+ 1.000 ft Var Var 5 kt METAR EHDL 020125Z AUTO VRB05KT 9999 BKN010 BKN012 FEW015CB 13/11 Q1014 GRN
02:55
V
12 °C 10 km+ 29.000 ft 210° 210° 8 kt METAR EHDL 020055Z AUTO 21008KT 140V230 9999 FEW015CB BKN290 12/10 Q1013 BLU
02:25
V
13 °C 10 km+ 30.000 ft 220° 220° 9 kt METAR EHDL 020025Z AUTO 22009KT 130V280 9999 FEW015CB BKN300 13/11 Q1013 BLU
01:55
V
13 °C 10 km+ 5.000 ft 230° 230° 9 kt METAR EHDL 012355Z AUTO 23009KT 150V280 9999 FEW015CB SCT042 BKN050 13/12 Q1013 REDZ BLU
01:25
M
13 °C 10 km+ 1.500 ft 210° 210° 8 kt METAR EHDL 012325Z AUTO 21008KT 140V270 9999 -RADZ FEW010 SCT013 BKN015CB 13/12 Q1013 GRN
00:55
V
12 °C 10 km+ - 210° 210° 8 kt METAR EHDL 012255Z AUTO 21008KT 140V250 9999 NCD 12/11 Q1012 BLU
00:25
V
12 °C 10 km+ - 210° 210° 9 kt METAR EHDL 012225Z AUTO 21009KT 140V260 9999 NCD 12/11 Q1012 BLU

1 octobre 2022

Temps Code Temps Temp. Vue Base cloud Vent METAR/SPECI
23:55
V
12 °C 10 km+ - 210° 210° 8 kt METAR EHDL 012155Z AUTO 21008KT 150V250 9999 NCD 12/10 Q1012 BLU
23:25
V
12 °C 10 km+ - 210° 210° 8 kt METAR EHDL 012125Z AUTO 21008KT 130V270 9999 NCD 12/10 Q1012 BLU
22:55
V
11 °C 10 km+ - 220° 220° 7 kt METAR EHDL 012055Z AUTO 22007KT 160V260 9999 NCD 11/10 Q1012 BLU
22:25
V
12 °C 10 km+ 5.900 ft 210° 210° 6 kt METAR EHDL 012025Z AUTO 21006KT 140V230 9999 FEW036 SCT053 BKN059 12/10 Q1011 BLU
21:55
V
11 °C 10 km+ - 220° 220° 6 kt METAR EHDL 011955Z AUTO 22006KT 160V270 9999 NCD 11/10 Q1011 BLU
21:25
V
11 °C 10 km+ - 220° 220° 7 kt METAR EHDL 011925Z AUTO 22007KT 150V260 9999 NCD 11/10 Q1011 BLU
20:55
V
11 °C 10 km+ - 220° 220° 6 kt METAR EHDL 011855Z AUTO 22006KT 130V230 9999 NCD 11/10 Q1010 BLU
20:25
V
12 °C 10 km+ - 210° 210° 5 kt METAR EHDL 011825Z AUTO 21005KT 150V250 9999 NCD 12/09 Q1010 BLU
19:55
V
14 °C 10 km+ 4.900 ft 250° 250° 9 kt METAR EHDL 011755Z AUTO 25009KT 180V330 9999 FEW043 BKN049 OVC053 14/09 Q1009 BLU
19:25
V
12 °C 10 km+ - 240° 240° 5 kt METAR EHDL 011725Z AUTO 24005KT 200V290 9999 FEW070 SCT083 12/09 Q1009 BLU
18:55
V
14 °C 10 km+ - 260° 260° 7 kt METAR EHDL 011655Z AUTO 26007KT 210V300 9999 FEW032 14/10 Q1009 BLU
18:25
V
15 °C 10 km+ - 270° 270° 10 kt METAR EHDL 011625Z AUTO 27010KT 230V340 9999 NCD 15/11 Q1008 BLU
17:55
V
15 °C 10 km+ - 280° 280° 9 kt METAR EHDL 011555Z AUTO 28009KT 210V340 9999 FEW029 SCT064 15/10 Q1008 BLU
17:25
V
14 °C 10 km+ 5.300 ft 310° 310° 12 kt METAR EHDL 011525Z AUTO 31012KT 260V030 9999 -RADZ FEW015CB SCT036 BKN053 14/11 Q1007 BLU
16:55
V
17 °C 10 km+ 5.700 ft 280° 280° 8 kt METAR EHDL 011455Z AUTO 28008KT 220V030 9999 FEW033 SCT037 BKN057 17/10 Q1007 BLU
16:25
V
17 °C 10 km+ 6.500 ft 270° 270° 14 kt METAR EHDL 011425Z AUTO 27014KT 210V350 9999 SCT060 OVC065 17/10 Q1006 BLU
15:55
V
17 °C 10 km+ 6.500 ft 280° 280° 12 kt METAR EHDL 011355Z AUTO 28012KT 200V360 9999 FEW051 BKN065 OVC071 17/10 Q1006 BLU
15:25
V
17 °C 10 km+ - 270° 270° 13 kt METAR EHDL 011325Z AUTO 27013KT 190V340 9999 FEW063 SCT073 17/11 Q1005 BLU
14:55
V
16 °C 10 km+ 3.300 ft Var Var 11 kt METAR EHDL 011255Z AUTO VRB11KT 9999 FEW015CB SCT025 BKN033 16/12 Q1005 BLU
14:25
M
15 °C 10 km+ 2.700 ft 290° 290° 11 kt METAR EHDL 011225Z AUTO 29011KT 240V010 9999 -RA FEW023 BKN027 BKN035 15/12 Q1005 BLU
13:55
M
18 °C 10 km+ 2.900 ft 260° 260° 16 kt METAR EHDL 011155Z AUTO 26016KT 190V350 9999 SCT026 BKN029 BKN037 18/12 Q1004 BLU
13:25
V
17 °C 10 km+ - Var Var 14 kt METAR EHDL 011125Z AUTO VRB14KT 9999 FEW019CB 17/12 Q1004 BLU
12:55
V
16 °C 10 km+ - 260° 260° 10 kt METAR EHDL 011055Z AUTO 26010KT 200V310 9999 FEW015CB SCT074 16/13 Q1003 REDZ BLU
12:25
V
16 °C 10 km+ 8.900 ft 230° 230° 10 kt METAR EHDL 011025Z AUTO 23010KT 150V280 9999 FEW008 SCT016 BKN089 16/14 Q1003 WHT
11:55
V
13 °C 10 km+ 3.000 ft 220° 220° 8 kt METAR EHDL 010955Z AUTO 22008KT 110V270 9999 -RA FEW007 FEW015CB SCT027 BKN030 13/12 Q1003 RERAUPRA BLU
11:25
V
14 °C 10 km+ 5.200 ft 230° 230° 8 kt METAR EHDL 010925Z AUTO 23008KT 160V280 9999 -RA FEW015CB SCT029 BKN052 14/13 Q1003 RERA BLU
10:55
M
14 °C 10 km+ 1.300 ft 220° 220° 8 kt METAR EHDL 010855Z AUTO 22008KT 170V290 9999 +DZRA FEW007 SCT009 BKN013 FEW015CB 14/13 Q1002 GRN
10:25
I
14 °C 10 km+ 700 ft 230° 230° 9 kt METAR EHDL 010825Z AUTO 23009KT 170V280 9999 SCT006 BKN007 BKN009 FEW015CB 14/13 Q1002 YLO
09:55
I
14 °C 10 km+ 600 ft 230° 230° 11 kt METAR EHDL 010755Z AUTO 23011KT 170V310 9999 BKN006 BKN007 OVC008 14/13 Q1001 YLO
09:25
I
13 °C 10 km+ 500 ft 220° 220° 9 kt METAR EHDL 010725Z AUTO 22009KT 150V270 9999 FEW004 BKN005 BKN006 13/12 Q1001 YLO
08:55
I
12 °C 10 km+ 700 ft 220° 220° 9 kt METAR EHDL 010655Z AUTO 22009KT 160V310 9999 SCT006 OVC007 12/12 Q1001 YLO
08:25
I
12 °C 10 km+ 900 ft 220° 220° 10 kt METAR EHDL 010625Z AUTO 22010KT 140V310 9999 FEW006 SCT007 BKN009 12/11 Q1001 GRN
07:55
M
12 °C 10 km+ 1.100 ft 220° 220° 11 kt METAR EHDL 010555Z AUTO 22011KT 150V280 9999 FEW006 SCT009 BKN011 12/11 Q1000 GRN
07:25
I
12 °C 10 km+ 600 ft Var Var 11 kt METAR EHDL 010525Z AUTO VRB11KT 9999 BKN006 BKN007 OVC009 12/11 Q1000 REDZ YLO
06:55
I
12 °C 10 km+ 800 ft 210° 210° 12 kt METAR EHDL 010455Z AUTO 21012KT 150V300 9999 SCT007 OVC008 12/11 Q1000 GRN
Données plus anciennes

Nous et des tiers suivons ton comportement sur Internet sur notre site Web à l'aide de cookies. Si tu continues, nous supposons que tu acceptes notre politique en matière de cookies. Apprendre plus